Time;durP1;ratioP1;P1;durP2;ratioP2;P2;SDS_P1;SDS_P2;PMS_P1;PMS_P2;Temp;Humidity;BMP_temperature;BMP_pressure;BME280_temperature;BME280_humidity;BME280_pressure;Samples;Min_cycle;Max_cycle;Signal;HPM_P1;HPM_P2
2023/12/13 00:02:22;;;;;;;19.75;12.93;;;;;;;5.63;58.25;93655.16;4996509;28;20063;-79
2023/12/13 00:04:48;;;;;;;25.02;15.50;;;;;;;5.60;58.22;93659.13;4997286;28;20544;-79
2023/12/13 00:07:14;;;;;;;29.95;17.73;;;;;;;5.66;58.10;93644.78;4997710;28;20474;-80
2023/12/13 00:09:39;;;;;;;29.45;17.70;;;;;;;5.79;58.15;93649.34;5001041;28;20056;-80
2023/12/13 00:12:05;;;;;;;20.33;14.15;;;;;;;5.70;58.06;93623.88;5000316;28;20034;-80
2023/12/13 00:14:30;;;;;;;21.58;15.60;;;;;;;5.66;57.63;93628.19;4998124;28;20033;-80
2023/12/13 00:16:56;;;;;;;19.80;14.18;;;;;;;5.57;57.39;93635.97;4997893;28;20029;-80
2023/12/13 00:19:22;;;;;;;26.10;15.38;;;;;;;5.71;57.56;93641.28;4994043;28;20026;-79
2023/12/13 00:21:47;;;;;;;21.40;12.77;;;;;;;5.64;57.83;93639.00;5001825;28;20038;-79
2023/12/13 00:24:13;;;;;;;19.70;12.85;;;;;;;5.63;57.61;93642.72;4993812;28;20034;-80
2023/12/13 00:26:39;;;;;;;17.67;11.35;;;;;;;5.49;57.71;93639.22;5000204;28;20030;-80
2023/12/13 00:29:05;;;;;;;20.10;11.40;;;;;;;5.30;58.10;93625.25;4989489;28;20022;-80
2023/12/13 00:31:30;;;;;;;21.35;14.02;;;;;;;5.34;58.81;93644.69;4996970;28;20080;-80
2023/12/13 00:33:56;;;;;;;26.00;16.73;;;;;;;5.33;58.26;93635.25;4996386;28;20038;-80
2023/12/13 00:36:21;;;;;;;28.17;17.00;;;;;;;5.29;58.83;93632.38;4993647;28;20034;-80
2023/12/13 00:38:47;;;;;;;24.58;17.02;;;;;;;5.21;59.03;93619.03;4993691;28;20138;-79
2023/12/13 00:41:14;;;;;;;24.63;13.80;;;;;;;5.23;59.42;93611.63;4992755;28;20038;-77
2023/12/13 00:43:40;;;;;;;17.88;10.10;;;;;;;5.29;59.13;93634.22;4995348;28;20049;-79
2023/12/13 00:46:06;;;;;;;12.27;7.53;;;;;;;5.28;59.27;93617.63;4995612;28;20154;-79
2023/12/13 00:48:36;;;;;;;10.75;7.80;;;;;;;5.42;59.06;93622.97;4995754;28;20030;-75
2023/12/13 00:51:02;;;;;;;11.40;8.23;;;;;;;5.33;59.22;93616.78;4992113;28;20046;-79
2023/12/13 00:53:28;;;;;;;10.48;7.85;;;;;;;5.36;59.24;93605.66;4993281;28;20112;-79
2023/12/13 00:55:54;;;;;;;11.60;6.80;;;;;;;5.28;59.07;93603.66;4993906;28;20413;-79
2023/12/13 00:58:19;;;;;;;11.68;6.40;;;;;;;5.42;59.74;93629.03;4993251;28;20061;-80
2023/12/13 01:00:45;;;;;;;13.93;6.35;;;;;;;5.52;59.39;93613.06;4995540;28;20590;-77
2023/12/13 01:03:11;;;;;;;10.80;6.78;;;;;;;5.56;59.25;93600.09;4999573;28;20065;-79
2023/12/13 01:05:36;;;;;;;8.15;5.60;;;;;;;5.49;59.12;93574.06;4993104;28;20120;-80
2023/12/13 01:08:02;;;;;;;13.77;7.22;;;;;;;5.59;59.01;93583.69;4995287;28;20087;-82
2023/12/13 01:10:28;;;;;;;11.55;7.80;;;;;;;5.72;58.95;93590.88;4997334;28;20120;-81
2023/12/13 01:12:53;;;;;;;12.15;7.15;;;;;;;5.58;58.68;93572.34;4996093;28;20121;-80
2023/12/13 01:15:19;;;;;;;13.10;7.25;;;;;;;5.64;59.04;93565.13;5000674;28;20030;-82
2023/12/13 01:17:47;;;;;;;14.25;8.98;;;;;;;5.71;59.16;93570.84;4995893;28;20068;-79
2023/12/13 01:20:12;;;;;;;10.23;6.20;;;;;;;5.80;58.61;93574.38;4997184;28;20039;-79
2023/12/13 01:22:39;;;;;;;13.73;7.43;;;;;;;5.64;59.15;93559.84;4996854;28;20038;-80
2023/12/13 01:25:06;;;;;;;12.40;8.50;;;;;;;5.58;59.00;93553.88;4994342;28;20030;-78
2023/12/13 01:27:31;;;;;;;12.98;8.18;;;;;;;5.43;59.63;93540.16;4998211;28;20034;-81
2023/12/13 01:29:57;;;;;;;11.27;6.95;;;;;;;5.46;59.27;93532.44;4994285;28;20576;-81
2023/12/13 01:32:22;;;;;;;13.02;7.07;;;;;;;5.37;59.49;93539.44;4996298;28;20571;-82
2023/12/13 01:34:48;;;;;;;14.35;8.88;;;;;;;5.49;58.87;93546.91;4997378;28;20112;-80
2023/12/13 01:37:13;;;;;;;14.27;9.13;;;;;;;5.39;59.57;93553.13;4994408;28;20017;-80
2023/12/13 01:39:41;;;;;;;14.27;8.90;;;;;;;5.29;59.62;93569.06;4997888;28;20031;-82
2023/12/13 01:42:06;;;;;;;11.32;8.70;;;;;;;5.23;60.91;93580.00;4994008;28;20056;-80
2023/12/13 01:44:32;;;;;;;16.75;9.52;;;;;;;5.37;60.00;93575.59;4992862;28;20042;-78
2023/12/13 01:46:59;;;;;;;18.83;11.05;;;;;;;5.46;60.09;93579.13;4994598;28;20136;-81
2023/12/13 01:49:25;;;;;;;15.98;10.57;;;;;;;5.24;61.28;93550.69;4995477;28;20057;-81
2023/12/13 01:51:51;;;;;;;17.55;11.63;;;;;;;5.27;61.07;93534.31;4996286;28;20088;-79
2023/12/13 01:54:17;;;;;;;16.27;11.05;;;;;;;5.39;60.98;93553.13;4993551;28;20440;-81
2023/12/13 01:56:43;;;;;;;16.05;11.05;;;;;;;5.43;60.94;93538.28;4994681;28;20153;-79
2023/12/13 01:59:13;;;;;;;14.77;9.82;;;;;;;5.41;60.49;93529.88;4993908;28;20046;-79
2023/12/13 02:01:39;;;;;;;12.40;9.25;;;;;;;5.56;59.72;93534.13;4996435;28;20045;-79
2023/12/13 02:04:05;;;;;;;11.77;8.95;;;;;;;5.58;60.27;93545.16;4992251;28;20065;-81
2023/12/13 02:06:30;;;;;;;12.75;8.48;;;;;;;5.49;60.21;93520.53;4994276;28;20508;-79
2023/12/13 02:08:56;;;;;;;10.48;7.28;;;;;;;5.55;59.54;93524.66;4994385;28;20040;-79
2023/12/13 02:11:21;;;;;;;16.73;8.48;;;;;;;5.36;60.02;93490.41;4993597;28;20492;-82
2023/12/13 02:13:47;;;;;;;12.95;9.00;;;;;;;5.57;60.52;93522.53;4993336;28;20508;-81
2023/12/13 02:16:13;;;;;;;15.30;8.35;;;;;;;5.53;60.50;93501.19;4995671;28;20025;-81
2023/12/13 02:18:38;;;;;;;10.02;6.05;;;;;;;5.28;61.84;93501.63;4997608;28;20424;-81
2023/12/13 02:21:05;;;;;;;11.32;7.40;;;;;;;5.46;61.23;93486.81;4998590;28;20046;-81
2023/12/13 02:23:31;;;;;;;8.63;5.55;;;;;;;5.59;60.59;93486.06;4999775;28;20030;-81
2023/12/13 02:26:02;;;;;;;13.68;10.32;;;;;;;5.44;60.58;93486.31;4995861;28;20022;-77
2023/12/13 02:28:29;;;;;;;18.65;12.88;;;;;;;5.37;62.15;93517.56;4996661;28;20102;-80
2023/12/13 02:30:56;;;;;;;22.20;13.27;;;;;;;5.54;61.82;93517.81;4993755;28;20034;-80
2023/12/13 02:33:24;;;;;;;19.92;14.73;;;;;;;5.57;61.54;93517.25;5000906;28;20043;-82
2023/12/13 02:35:51;;;;;;;27.90;16.90;;;;;;;5.71;60.72;93512.00;4994082;28;20061;-81
2023/12/13 02:38:16;;;;;;;33.95;17.50;;;;;;;5.70;60.89;93505.94;4994057;28;20042;-81
2023/12/13 02:40:42;;;;;;;25.92;16.55;;;;;;;5.56;61.17;93473.47;4997637;28;20517;-81
2023/12/13 02:43:07;;;;;;;27.73;18.20;;;;;;;5.72;61.00;93474.78;4992296;28;20038;-81
2023/12/13 02:45:33;;;;;;;25.25;15.38;;;;;;;5.71;60.76;93453.97;4997767;28;20030;-81
2023/12/13 02:47:59;;;;;;;21.75;14.32;;;;;;;5.70;59.93;93461.09;4992174;28;20034;-81
2023/12/13 02:50:25;;;;;;;17.90;14.32;;;;;;;5.78;60.08;93492.06;4992933;28;20851;-81
2023/12/13 02:52:51;;;;;;;19.55;13.73;;;;;;;5.61;59.82;93476.03;4994771;28;20034;-81
2023/12/13 02:55:19;;;;;;;22.15;14.32;;;;;;;5.62;60.14;93487.38;4993824;28;20014;-77
2023/12/13 02:57:46;;;;;;;20.45;13.93;;;;;;;5.69;60.12;93493.03;4993969;28;20034;-78
2023/12/13 03:00:14;;;;;;;23.42;13.80;;;;;;;5.75;59.93;93497.16;4995179;28;20045;-78
2023/12/13 03:02:40;;;;;;;22.13;14.68;;;;;;;5.68;59.69;93476.41;4997191;28;20040;-80
2023/12/13 03:05:06;;;;;;;23.85;15.40;;;;;;;5.42;60.70;93491.91;4992540;28;20054;-79
2023/12/13 03:07:32;;;;;;;31.33;21.77;;;;;;;5.44;61.22;93496.88;4993153;28;20030;-80
2023/12/13 03:09:57;;;;;;;37.33;25.38;;;;;;;5.48;61.01;93490.72;4991988;28;20033;-80
2023/12/13 03:12:30;;;;;;;37.58;25.80;;;;;;;5.61;60.82;93476.03;4995042;28;20030;-76
2023/12/13 03:14:56;;;;;;;40.85;25.30;;;;;;;5.52;60.88;93477.75;4993756;28;20030;-80
2023/12/13 03:17:21;;;;;;;38.58;25.27;;;;;;;5.41;60.72;93486.91;4993951;28;20504;-80
2023/12/13 03:19:47;;;;;;;47.90;28.52;;;;;;;4.78;62.73;93478.63;4994540;28;20110;-77
2023/12/13 03:22:13;;;;;;;46.70;29.55;;;;;;;4.72;64.10;93501.59;4994121;28;20158;-80
2023/12/13 03:24:39;;;;;;;50.25;31.73;;;;;;;4.83;63.92;93492.50;5000836;28;20096;-81
2023/12/13 03:27:04;;;;;;;43.75;30.10;;;;;;;5.07;63.04;93506.41;5004102;28;20053;-80
2023/12/13 03:29:30;;;;;;;43.58;28.58;;;;;;;5.23;61.69;93511.44;4999183;28;20039;-81
2023/12/13 03:31:56;;;;;;;47.45;30.55;;;;;;;5.03;61.71;93507.25;4998974;28;20489;-80
2023/12/13 03:34:21;;;;;;;51.42;30.00;;;;;;;5.12;61.32;93516.88;4998053;28;20059;-79
2023/12/13 03:36:47;;;;;;;47.28;28.33;;;;;;;4.98;62.10;93505.47;4999231;28;20525;-79
2023/12/13 03:39:13;;;;;;;47.42;29.90;;;;;;;5.03;61.13;93504.63;4995539;28;20038;-80
2023/12/13 03:41:38;;;;;;;40.95;27.90;;;;;;;5.20;60.62;93506.72;4996283;28;20061;-80
2023/12/13 03:44:04;;;;;;;40.65;28.80;;;;;;;5.04;61.12;93499.03;4995836;28;20032;-80
2023/12/13 03:46:29;;;;;;;43.25;27.92;;;;;;;5.07;61.40;93516.94;4998208;28;20110;-80
2023/12/13 03:48:54;;;;;;;44.03;27.60;;;;;;;5.14;60.77;93520.00;5000413;28;20915;-80
2023/12/13 03:51:20;;;;;;;47.55;28.55;;;;;;;5.18;60.07;93522.06;4993964;28;21041;-79
2023/12/13 03:53:46;;;;;;;42.78;28.65;;;;;;;5.21;60.40;93518.84;4996933;28;20140;-78
2023/12/13 03:56:12;;;;;;;40.10;29.33;;;;;;;5.12;60.44;93508.97;4998914;28;20254;-80
2023/12/13 03:58:38;;;;;;;44.60;29.10;;;;;;;5.11;61.06;93498.69;4996760;28;20026;-80
2023/12/13 04:01:04;;;;;;;39.45;26.90;;;;;;;5.16;60.72;93488.06;4996496;28;20454;-80
2023/12/13 04:03:29;;;;;;;41.50;28.08;;;;;;;5.06;60.78;93472.41;4997052;28;20042;-79
2023/12/13 04:05:55;;;;;;;41.78;28.45;;;;;;;4.99;61.04;93470.13;4996638;28;20046;-76
2023/12/13 04:08:21;;;;;;;39.00;25.75;;;;;;;5.01;61.97;93494.34;4996729;28;20060;-79
2023/12/13 04:10:46;;;;;;;44.20;27.27;;;;;;;5.04;61.72;93482.47;4997272;28;20103;-76
2023/12/13 04:13:12;;;;;;;46.92;27.25;;;;;;;5.07;61.77;93477.41;4999814;28;20026;-79
2023/12/13 04:15:38;;;;;;;38.35;24.23;;;;;;;5.16;61.70;93479.38;4994824;28;20116;-80
2023/12/13 04:18:04;;;;;;;36.45;23.20;;;;;;;5.10;61.44;93454.94;4997154;28;20122;-80
2023/12/13 04:20:29;;;;;;;33.83;22.95;;;;;;;4.78;62.26;93463.59;4990408;28;20050;-80
2023/12/13 04:22:55;;;;;;;38.95;25.75;;;;;;;4.09;67.69;93488.66;4996071;28;20030;-81
2023/12/13 04:25:20;;;;;;;36.28;21.73;;;;;;;4.60;65.22;93485.44;4996942;28;20048;-81
2023/12/13 04:27:51;;;;;;;35.17;20.50;;;;;;;4.83;63.98;93474.06;4995101;28;20545;-80
2023/12/13 04:30:17;;;;;;;26.75;17.67;;;;;;;4.78;63.50;93431.97;4998314;28;20038;-81
2023/12/13 04:32:42;;;;;;;25.13;15.27;;;;;;;5.06;63.13;93444.19;4998782;28;20046;-81
2023/12/13 04:35:08;;;;;;;18.75;12.80;;;;;;;5.16;62.42;93450.38;4998491;28;20500;-81
2023/12/13 04:37:34;;;;;;;14.82;11.25;;;;;;;4.97;62.43;93419.56;5000141;28;20021;-79
2023/12/13 04:40:00;;;;;;;13.40;10.70;;;;;;;4.78;63.46;93437.25;4993924;28;20046;-80
2023/12/13 04:42:25;;;;;;;17.25;9.35;;;;;;;4.89;63.07;93422.88;5001798;28;22103;-80
2023/12/13 04:44:51;;;;;;;12.40;9.48;;;;;;;5.22;63.10;93446.59;4994186;28;20093;-80
2023/12/13 04:47:17;;;;;;;15.98;10.25;;;;;;;5.28;62.07;93421.72;4994661;28;20673;-81
2023/12/13 04:49:43;;;;;;;14.38;10.10;;;;;;;5.29;62.33;93420.63;4995765;28;20034;-81
2023/12/13 04:52:08;;;;;;;17.77;10.00;;;;;;;5.06;63.52;93427.59;4991676;28;20034;-80
2023/12/13 04:54:35;;;;;;;17.98;10.88;;;;;;;5.26;62.90;93431.78;5000281;28;20493;-81
2023/12/13 04:57:01;;;;;;;18.58;10.35;;;;;;;4.49;64.76;93433.97;4992046;28;20034;-81
2023/12/13 04:59:27;;;;;;;14.45;10.07;;;;;;;4.28;66.82;93428.16;5011109;28;20055;-79
2023/12/13 05:01:52;;;;;;;18.42;11.35;;;;;;;4.90;63.65;93428.91;4992883;28;20044;-80
2023/12/13 05:04:18;;;;;;;43.28;26.33;;;;;;;4.89;63.83;93451.84;4997291;28;20505;-81
2023/12/13 05:06:43;;;;;;;31.83;18.08;;;;;;;4.93;63.77;93450.22;4994870;28;20542;-81
2023/12/13 05:09:09;;;;;;;17.45;13.15;;;;;;;4.82;64.18;93427.69;4997526;28;20461;-81
2023/12/13 05:11:34;;;;;;;19.55;13.20;;;;;;;4.91;63.59;93423.34;4995954;28;20030;-80
2023/12/13 05:13:59;;;;;;;16.92;11.52;;;;;;;3.08;71.27;93399.47;4993967;28;20049;-80
2023/12/13 05:16:25;;;;;;;16.25;11.85;;;;;;;3.74;69.95;93396.94;4994655;28;20032;-80
2023/12/13 05:18:51;;;;;;;15.85;10.93;;;;;;;4.09;67.62;93404.44;4994446;28;20033;-80
2023/12/13 05:21:16;;;;;;;20.13;13.07;;;;;;;4.22;66.77;93368.72;4995068;28;20045;-78
2023/12/13 05:23:42;;;;;;;21.02;13.18;;;;;;;4.50;65.53;93393.41;4993581;28;20537;-81
2023/12/13 05:26:07;;;;;;;16.85;12.10;;;;;;;4.62;64.46;93414.81;4994451;28;20469;-80
2023/12/13 05:28:33;;;;;;;21.40;13.45;;;;;;;4.75;64.36;93434.41;4996474;28;20030;-81
2023/12/13 05:30:58;;;;;;;35.72;22.80;;;;;;;4.75;64.44;93437.81;4992439;28;20595;-81
2023/12/13 05:33:24;;;;;;;22.95;15.00;;;;;;;4.76;64.06;93417.50;4993531;28;20505;-81
2023/12/13 05:35:50;;;;;;;28.92;19.33;;;;;;;4.22;66.28;93424.78;5002457;28;20061;-78
2023/12/13 05:38:16;;;;;;;28.73;19.15;;;;;;;4.39;65.97;93413.03;4998277;28;20127;-81
2023/12/13 05:40:41;;;;;;;27.40;17.90;;;;;;;3.93;67.55;93425.94;4996417;28;20034;-81
2023/12/13 05:43:07;;;;;;;27.00;15.77;;;;;;;3.93;68.44;93407.53;4997201;28;20183;-80
2023/12/13 05:45:32;;;;;;;25.80;16.85;;;;;;;4.35;66.24;93419.94;4994380;28;20045;-81
2023/12/13 05:47:58;;;;;;;27.85;15.70;;;;;;;4.45;65.72;93422.44;4994589;28;20041;-80
2023/12/13 05:50:24;;;;;;;58.47;36.63;;;;;;;4.58;66.00;93451.50;4995326;28;20069;-80
2023/12/13 05:52:49;;;;;;;69.75;42.47;;;;;;;4.79;64.55;93444.09;5000002;28;20068;-81
2023/12/13 05:55:15;;;;;;;76.85;46.35;;;;;;;4.71;64.63;93423.66;4993722;28;20026;-80
2023/12/13 05:57:40;;;;;;;23.08;14.95;;;;;;;4.87;64.64;93432.91;4991993;28;20038;-81
2023/12/13 06:00:09;;;;;;;21.50;14.02;;;;;;;4.91;64.82;93435.75;4993585;28;20041;-81
2023/12/13 06:02:37;;;;;;;25.63;16.27;;;;;;;4.97;64.63;93418.78;4993079;28;20397;-77
2023/12/13 06:05:03;;;;;;;35.13;23.23;;;;;;;4.22;66.61;93384.53;4991857;28;20504;-81
2023/12/13 06:07:30;;;;;;;33.42;21.85;;;;;;;4.48;66.51;93387.63;4993918;28;20040;-80
2023/12/13 06:09:55;;;;;;;29.48;20.65;;;;;;;4.70;65.49;93382.56;4993081;28;20575;-81
2023/12/13 06:12:26;;;;;;;32.03;21.20;;;;;;;4.98;64.72;93421.16;4998089;28;20038;-79
2023/12/13 06:14:52;;;;;;;28.35;19.70;;;;;;;4.97;64.56;93419.56;4991243;28;20026;-81
2023/12/13 06:17:17;;;;;;;35.60;23.60;;;;;;;4.98;64.35;93388.72;4994521;28;20042;-81
2023/12/13 06:19:43;;;;;;;40.40;25.83;;;;;;;5.21;64.31;93414.19;4995330;28;20112;-81
2023/12/13 06:22:10;;;;;;;54.42;33.40;;;;;;;5.39;63.78;93410.69;5005677;28;20433;-80
2023/12/13 06:24:36;;;;;;;51.85;32.60;;;;;;;5.16;64.26;93405.56;4993712;28;20038;-81
2023/12/13 06:27:01;;;;;;;53.85;31.00;;;;;;;5.21;63.59;93372.00;4991826;28;20091;-81
2023/12/13 06:29:27;;;;;;;40.45;25.67;;;;;;;5.42;63.02;93394.31;4991833;28;20813;-80
2023/12/13 06:31:53;;;;;;;41.08;25.30;;;;;;;5.22;64.27;93391.25;4992261;28;20377;-82
2023/12/13 06:34:18;;;;;;;42.13;23.70;;;;;;;5.33;64.41;93390.00;4993964;28;20176;-80
2023/12/13 06:36:44;;;;;;;44.67;30.42;;;;;;;5.31;64.30;93382.38;4991666;28;20033;-81
2023/12/13 06:39:11;;;;;;;35.03;22.05;;;;;;;5.41;64.26;93370.88;4997450;28;20377;-77
2023/12/13 06:41:40;;;;;;;39.88;23.48;;;;;;;5.66;63.59;93388.09;4996183;28;20030;-82
2023/12/13 06:44:09;;;;;;;39.80;25.38;;;;;;;5.36;63.56;93344.59;4999625;28;20417;-81
2023/12/13 06:46:35;;;;;;;34.42;21.65;;;;;;;5.32;65.18;93378.66;4994093;28;20037;-81
2023/12/13 06:49:00;;;;;;;29.92;20.38;;;;;;;5.61;64.83;93381.06;4995146;28;20401;-81
2023/12/13 06:51:26;;;;;;;30.70;20.80;;;;;;;5.69;63.67;93353.19;4995882;28;20216;-81
2023/12/13 06:53:52;;;;;;;27.42;18.30;;;;;;;5.99;62.83;93371.88;4996642;28;20072;-79
2023/12/13 06:56:18;;;;;;;24.60;16.58;;;;;;;5.83;63.10;93354.75;5007247;28;20048;-79
2023/12/13 06:58:43;;;;;;;26.90;16.60;;;;;;;6.02;62.25;93369.72;5007086;28;20578;-79
2023/12/13 07:01:10;;;;;;;30.77;18.27;;;;;;;5.77;63.51;93387.63;5004607;28;20034;-79
2023/12/13 07:03:39;;;;;;;25.30;17.88;;;;;;;5.52;63.95;93362.50;4998273;28;20061;-82
2023/12/13 07:06:09;;;;;;;26.27;16.58;;;;;;;5.41;64.89;93370.88;5005737;28;20298;-76
2023/12/13 07:08:34;;;;;;;27.35;16.83;;;;;;;5.60;64.36;93368.94;5007953;28;20041;-79
2023/12/13 07:11:03;;;;;;;22.83;16.27;;;;;;;5.90;63.68;93381.56;4999266;28;20539;-79
2023/12/13 07:13:30;;;;;;;22.83;16.20;;;;;;;5.97;62.62;93378.50;5001784;28;20026;-80
2023/12/13 07:15:55;;;;;;;26.13;18.70;;;;;;;5.96;62.99;93379.59;4999676;28;20062;-78
2023/12/13 07:18:24;;;;;;;23.48;15.70;;;;;;;5.93;62.82;93382.81;5002822;28;20058;-77
2023/12/13 07:20:50;;;;;;;26.17;17.20;;;;;;;5.56;64.01;93381.94;4999450;28;20034;-80
2023/12/13 07:23:16;;;;;;;29.95;19.92;;;;;;;5.14;66.79;93382.91;4997148;28;20041;-79
2023/12/13 07:25:43;;;;;;;27.70;18.80;;;;;;;5.52;65.18;93369.63;5004945;28;20033;-77
2023/12/13 07:28:13;;;;;;;31.60;20.45;;;;;;;5.60;65.30;93371.56;4995467;28;20140;-77
2023/12/13 07:30:39;;;;;;;30.00;21.00;;;;;;;5.67;64.60;93374.63;5013251;28;20096;-79
2023/12/13 07:33:04;;;;;;;27.63;19.77;;;;;;;5.86;64.01;93356.81;4998335;28;20686;-76
2023/12/13 07:35:30;;;;;;;28.30;19.58;;;;;;;6.01;62.56;93363.66;5000706;28;20034;-79
2023/12/13 07:37:55;;;;;;;28.83;20.17;;;;;;;6.02;63.28;93358.06;4998053;28;20022;-79
2023/12/13 07:40:21;;;;;;;30.80;20.63;;;;;;;5.84;64.54;93364.25;4996679;28;20061;-79
2023/12/13 07:42:47;;;;;;;27.83;18.70;;;;;;;6.01;63.96;93353.09;4999680;28;20094;-80
2023/12/13 07:45:13;;;;;;;26.20;17.60;;;;;;;5.89;63.99;93345.66;5002342;28;20041;-80
2023/12/13 07:47:49;;;;;;;29.65;20.25;;;;;;;5.53;65.32;93326.31;5006370;28;20561;-78
2023/12/13 07:50:15;;;;;;;32.35;21.23;;;;;;;5.43;66.42;93353.66;5009310;28;20057;-79
2023/12/13 07:52:40;;;;;;;25.38;18.77;;;;;;;5.70;66.73;93358.19;5002003;28;20029;-80
2023/12/13 07:55:07;;;;;;;32.63;21.40;;;;;;;5.81;64.90;93364.06;5008163;28;20037;-79
2023/12/13 07:57:32;;;;;;;34.10;21.98;;;;;;;5.51;66.32;93375.97;5000801;28;20030;-79
2023/12/13 07:59:57;;;;;;;31.80;20.20;;;;;;;5.96;64.22;93379.59;5001748;28;20034;-79
2023/12/13 08:02:24;;;;;;;34.80;23.65;;;;;;;5.78;63.64;93356.72;5004902;28;20034;-80
2023/12/13 08:04:49;;;;;;;36.05;22.75;;;;;;;5.88;64.01;93365.22;5000008;28;20195;-79
2023/12/13 08:07:15;;;;;;;43.97;25.23;;;;;;;5.67;65.11;93377.25;5000962;28;20104;-79
2023/12/13 08:09:42;;;;;;;40.10;24.58;;;;;;;6.01;64.84;93374.22;4999777;28;20130;-77
2023/12/13 08:12:07;;;;;;;32.72;23.17;;;;;;;6.16;62.94;93362.59;4998006;28;21363;-79
2023/12/13 08:14:33;;;;;;;32.08;20.48;;;;;;;6.19;62.91;93359.34;4997580;28;20101;-79
2023/12/13 08:17:02;;;;;;;38.28;24.52;;;;;;;6.51;62.11;93361.81;4999563;28;20022;-79
2023/12/13 08:19:27;;;;;;;33.70;23.38;;;;;;;6.47;61.60;93336.28;4998810;28;20029;-79
2023/12/13 08:21:53;;;;;;;35.60;22.30;;;;;;;6.13;62.85;93345.44;4996544;28;20482;-78
2023/12/13 08:24:18;;;;;;;36.33;23.45;;;;;;;5.89;63.56;93335.13;4998522;28;20387;-79
2023/12/13 08:26:45;;;;;;;38.92;24.15;;;;;;;5.88;63.89;93349.38;5000113;28;20034;-79
2023/12/13 08:29:11;;;;;;;33.72;22.38;;;;;;;6.16;62.93;93349.41;4994984;28;20048;-78
2023/12/13 08:31:37;;;;;;;35.05;21.58;;;;;;;6.42;61.76;93355.69;4995827;28;20205;-78
2023/12/13 08:34:03;;;;;;;42.28;26.67;;;;;;;6.42;61.71;93345.13;4993349;28;20152;-79
2023/12/13 08:36:30;;;;;;;50.58;31.05;;;;;;;5.78;63.97;93339.03;4995233;28;20129;-78
2023/12/13 08:38:56;;;;;;;51.60;32.03;;;;;;;5.62;65.91;93361.53;4992004;28;20037;-80
2023/12/13 08:41:23;;;;;;;43.45;30.05;;;;;;;5.83;65.34;93362.69;4993070;28;20034;-77
2023/12/13 08:43:49;;;;;;;51.30;35.13;;;;;;;5.76;64.55;93351.75;5009131;28;20481;-79
2023/12/13 08:46:14;;;;;;;51.25;32.38;;;;;;;5.83;65.61;93365.31;4996831;28;20030;-79
2023/12/13 08:48:40;;;;;;;52.10;33.63;;;;;;;5.79;65.82;93374.91;4993071;28;20565;-80
2023/12/13 08:51:06;;;;;;;46.97;30.83;;;;;;;6.15;63.97;93364.41;4993784;28;20401;-78
2023/12/13 08:53:31;;;;;;;53.65;31.50;;;;;;;6.46;62.86;93382.31;5002050;28;20113;-79
2023/12/13 08:55:57;;;;;;;47.58;32.00;;;;;;;6.11;62.57;93349.47;4997758;28;20101;-80
2023/12/13 08:58:22;;;;;;;50.75;31.15;;;;;;;5.61;65.35;93359.94;4999074;28;20036;-79
2023/12/13 09:00:48;;;;;;;49.33;32.20;;;;;;;6.28;64.05;93389.25;4991696;28;20030;-78
2023/12/13 09:03:15;;;;;;;52.70;33.92;;;;;;;6.05;63.68;93375.19;4993987;28;20049;-79
2023/12/13 09:05:40;;;;;;;54.25;32.25;;;;;;;6.40;63.20;93371.06;4991252;28;20116;-79
2023/12/13 09:08:06;;;;;;;56.22;33.75;;;;;;;6.38;62.46;93352.84;4991966;28;20785;-79
2023/12/13 09:10:34;;;;;;;57.88;32.90;;;;;;;6.55;61.80;93346.16;4988841;28;20564;-77
2023/12/13 09:13:04;;;;;;;60.67;36.75;;;;;;;6.82;61.39;93344.19;4995139;28;20137;-77
2023/12/13 09:15:31;;;;;;;47.83;31.40;;;;;;;6.73;60.97;93322.22;4990745;28;20030;-79
2023/12/13 09:17:57;;;;;;;55.70;33.50;;;;;;;6.89;59.98;93341.16;4991333;28;20029;-78
2023/12/13 09:20:22;;;;;;;44.80;30.10;;;;;;;6.59;60.98;93295.06;4990771;28;20060;-79
2023/12/13 09:22:49;;;;;;;42.35;31.65;;;;;;;6.99;60.06;93319.75;4992304;28;20034;-78
2023/12/13 09:25:14;;;;;;;48.75;31.35;;;;;;;6.84;59.82;93299.75;4993131;28;20078;-77
2023/12/13 09:27:46;;;;;;;52.28;33.25;;;;;;;6.66;60.55;93303.34;4989741;28;20057;-79
2023/12/13 09:30:13;;;;;;;54.78;33.13;;;;;;;6.28;62.32;93299.47;4991711;28;20076;-77
2023/12/13 09:32:39;;;;;;;53.80;34.90;;;;;;;5.86;64.73;93308.53;4991665;28;20062;-79
2023/12/13 09:35:05;;;;;;;53.65;34.42;;;;;;;5.81;64.50;93295.44;4996011;28;22620;-78
2023/12/13 09:37:32;;;;;;;50.47;33.20;;;;;;;5.95;65.59;93286.44;4994021;28;20767;-80
2023/12/13 09:39:59;;;;;;;48.22;32.53;;;;;;;6.67;63.40;93327.91;4991106;28;20094;-79
2023/12/13 09:42:25;;;;;;;47.03;28.45;;;;;;;6.73;61.64;93327.50;4990266;28;20891;-80
2023/12/13 09:44:52;;;;;;;40.47;25.90;;;;;;;6.83;59.52;93306.13;4991485;28;20041;-79
2023/12/13 09:47:20;;;;;;;40.60;27.23;;;;;;;7.02;60.48;93302.50;4988554;28;20033;-79
2023/12/13 09:49:47;;;;;;;47.17;29.05;;;;;;;6.78;59.98;93290.38;4988815;28;20616;-76
2023/12/13 09:52:18;;;;;;;40.63;23.80;;;;;;;6.70;59.57;93292.97;4993722;28;20037;-80
2023/12/13 09:54:46;;;;;;;34.97;23.00;;;;;;;7.03;59.42;93298.75;4988735;28;20826;-80
2023/12/13 09:57:11;;;;;;;40.55;21.52;;;;;;;7.07;58.86;93271.41;4999642;28;20041;-79
2023/12/13 09:59:38;;;;;;;35.03;21.67;;;;;;;6.83;58.38;93277.03;4997578;28;20171;-79
2023/12/13 10:02:10;;;;;;;30.65;21.75;;;;;;;6.69;59.24;93278.19;4997501;28;20026;-80
2023/12/13 10:04:36;;;;;;;33.95;23.98;;;;;;;7.34;60.19;93269.69;5010346;28;20039;-79
2023/12/13 10:07:05;;;;;;;35.10;22.20;;;;;;;7.35;57.95;93253.47;4992767;28;20130;-78
2023/12/13 10:09:31;;;;;;;41.47;24.80;;;;;;;7.76;56.77;93260.34;4996784;28;20446;-77
2023/12/13 10:11:58;;;;;;;30.92;20.30;;;;;;;7.47;55.79;93245.75;4992840;28;20126;-80
2023/12/13 10:14:24;;;;;;;39.67;20.70;;;;;;;7.09;56.63;93189.16;4993033;28;20257;-77
2023/12/13 10:16:49;;;;;;;35.03;24.08;;;;;;;7.30;56.54;93229.81;4992992;28;20044;-80
2023/12/13 10:19:16;;;;;;;34.80;23.23;;;;;;;6.86;58.48;93225.41;4993264;28;20029;-79
2023/12/13 10:21:42;;;;;;;37.45;25.10;;;;;;;6.76;58.70;93205.31;4991153;28;20415;-76
2023/12/13 10:24:07;;;;;;;40.30;25.17;;;;;;;6.41;61.08;93214.13;4993923;28;20068;-79
2023/12/13 10:26:36;;;;;;;36.42;24.85;;;;;;;7.11;60.13;93216.06;4990744;28;20092;-79
2023/12/13 10:29:05;;;;;;;42.15;27.27;;;;;;;7.13;58.33;93203.31;4993273;28;20465;-79
2023/12/13 10:31:31;;;;;;;38.33;25.30;;;;;;;6.79;58.82;93178.31;4990742;28;20026;-81
2023/12/13 10:33:57;;;;;;;40.72;26.58;;;;;;;6.96;58.88;93176.78;4993448;28;20106;-77
2023/12/13 10:36:29;;;;;;;44.22;22.73;;;;;;;6.50;59.60;93185.13;4985047;28;20113;-77
2023/12/13 10:38:56;;;;;;;34.50;22.52;;;;;;;6.72;59.36;93188.50;4990437;28;20046;-79
2023/12/13 10:41:25;;;;;;;34.22;20.35;;;;;;;6.49;59.50;93173.78;4992510;28;20879;-79
2023/12/13 10:43:55;;;;;;;38.13;20.92;;;;;;;6.48;60.69;93182.00;4987258;28;20025;-77
2023/12/13 10:46:22;;;;;;;38.83;20.40;;;;;;;6.98;58.40;93179.94;4989205;28;20026;-79
2023/12/13 10:48:48;;;;;;;30.02;20.83;;;;;;;6.68;58.72;93163.78;4993206;28;20047;-77
2023/12/13 10:51:15;;;;;;;40.55;20.33;;;;;;;6.44;60.78;93181.84;4993325;28;20097;-79
2023/12/13 10:53:42;;;;;;;39.10;26.05;;;;;;;7.06;59.15;93172.03;4980060;28;20046;-77
2023/12/13 10:56:09;;;;;;;42.03;21.63;;;;;;;7.41;58.66;93172.91;4994591;28;20140;-76
2023/12/13 10:58:36;;;;;;;34.00;20.42;;;;;;;7.59;57.37;93153.31;4995770;28;20082;-77
2023/12/13 11:01:02;;;;;;;35.35;22.38;;;;;;;7.85;56.91;93179.84;5000014;28;20045;-79
2023/12/13 11:03:35;;;;;;;46.85;26.02;;;;;;;7.56;56.45;93164.53;4996546;28;20034;-78
2023/12/13 11:06:05;;;;;;;36.20;25.23;;;;;;;7.81;57.66;93165.66;4999264;28;20647;-79
2023/12/13 11:08:41;;;;;;;52.05;32.40;;;;;;;8.16;55.53;93171.75;5000669;28;20072;-80
2023/12/13 11:17:27;;;;;;;38.63;27.10;;;;;;;7.71;56.23;93165.94;4941276;28;20061;-75
2023/12/13 11:19:54;;;;;;;40.38;27.33;;;;;;;7.23;57.50;93150.16;4963686;28;20981;-76
2023/12/13 11:22:23;;;;;;;43.35;27.55;;;;;;;7.04;58.25;93136.41;4967394;28;20022;-76
2023/12/13 11:25:04;;;;;;;39.97;24.95;;;;;;;7.37;57.38;93145.50;4966472;28;20043;-76
2023/12/13 11:27:32;;;;;;;37.97;24.35;;;;;;;7.68;57.35;93161.25;4967384;28;20042;-76
2023/12/13 11:29:58;;;;;;;41.22;25.50;;;;;;;7.47;56.53;93155.00;4962384;28;20042;-74